sensor_id;sensor_type;location;lat;lon;timestamp;P1;durP1;ratioP1;P2;durP2;ratioP2
81544;SDS011;70990;50.618;7.346;2024-02-26T00:01:46;2.33;;;0.65;;
81544;SDS011;70990;50.618;7.346;2024-02-26T00:04:13;1.30;;;0.40;;
81544;SDS011;70990;50.618;7.346;2024-02-26T00:06:40;0.52;;;0.38;;
81544;SDS011;70990;50.618;7.346;2024-02-26T00:09:10;0.43;;;0.30;;
81544;SDS011;70990;50.618;7.346;2024-02-26T00:11:36;1.05;;;0.45;;
81544;SDS011;70990;50.618;7.346;2024-02-26T00:14:03;0.47;;;0.30;;
81544;SDS011;70990;50.618;7.346;2024-02-26T00:16:30;2.88;;;0.68;;
81544;SDS011;70990;50.618;7.346;2024-02-26T00:18:57;0.50;;;0.38;;
81544;SDS011;70990;50.618;7.346;2024-02-26T00:21:24;1.00;;;0.68;;
81544;SDS011;70990;50.618;7.346;2024-02-26T00:23:50;2.65;;;0.50;;
81544;SDS011;70990;50.618;7.346;2024-02-26T00:26:17;1.48;;;0.47;;
81544;SDS011;70990;50.618;7.346;2024-02-26T00:28:46;0.88;;;0.40;;
81544;SDS011;70990;50.618;7.346;2024-02-26T00:31:13;1.83;;;0.57;;
81544;SDS011;70990;50.618;7.346;2024-02-26T00:33:39;0.60;;;0.30;;
81544;SDS011;70990;50.618;7.346;2024-02-26T00:36:06;2.97;;;0.60;;
81544;SDS011;70990;50.618;7.346;2024-02-26T00:38:32;1.80;;;0.47;;
81544;SDS011;70990;50.618;7.346;2024-02-26T00:40:59;1.00;;;0.45;;
81544;SDS011;70990;50.618;7.346;2024-02-26T00:43:25;0.38;;;0.35;;
81544;SDS011;70990;50.618;7.346;2024-02-26T00:45:52;1.17;;;0.30;;
81544;SDS011;70990;50.618;7.346;2024-02-26T00:48:18;0.75;;;0.40;;
81544;SDS011;70990;50.618;7.346;2024-02-26T00:50:45;1.55;;;0.80;;
81544;SDS011;70990;50.618;7.346;2024-02-26T00:53:12;0.88;;;0.38;;
81544;SDS011;70990;50.618;7.346;2024-02-26T00:55:38;1.85;;;0.47;;
81544;SDS011;70990;50.618;7.346;2024-02-26T00:58:05;0.70;;;0.35;;
81544;SDS011;70990;50.618;7.346;2024-02-26T01:00:31;1.45;;;0.68;;
81544;SDS011;70990;50.618;7.346;2024-02-26T01:02:58;1.50;;;0.50;;
81544;SDS011;70990;50.618;7.346;2024-02-26T01:05:24;2.60;;;0.70;;
81544;SDS011;70990;50.618;7.346;2024-02-26T01:07:51;1.98;;;0.57;;
81544;SDS011;70990;50.618;7.346;2024-02-26T01:10:18;1.10;;;0.57;;
81544;SDS011;70990;50.618;7.346;2024-02-26T01:12:45;1.73;;;0.40;;
81544;SDS011;70990;50.618;7.346;2024-02-26T01:15:11;2.97;;;0.63;;
81544;SDS011;70990;50.618;7.346;2024-02-26T01:17:38;0.50;;;0.45;;
81544;SDS011;70990;50.618;7.346;2024-02-26T01:20:05;2.03;;;0.43;;
81544;SDS011;70990;50.618;7.346;2024-02-26T01:22:32;0.57;;;0.38;;
81544;SDS011;70990;50.618;7.346;2024-02-26T01:24:58;1.33;;;0.50;;
81544;SDS011;70990;50.618;7.346;2024-02-26T01:27:25;1.73;;;0.50;;
81544;SDS011;70990;50.618;7.346;2024-02-26T01:29:51;1.90;;;0.75;;
81544;SDS011;70990;50.618;7.346;2024-02-26T01:32:18;3.67;;;0.75;;
81544;SDS011;70990;50.618;7.346;2024-02-26T01:34:44;1.48;;;0.45;;
81544;SDS011;70990;50.618;7.346;2024-02-26T01:37:11;1.85;;;0.50;;
81544;SDS011;70990;50.618;7.346;2024-02-26T01:39:37;0.95;;;0.50;;
81544;SDS011;70990;50.618;7.346;2024-02-26T01:42:04;1.23;;;0.55;;
81544;SDS011;70990;50.618;7.346;2024-02-26T01:44:30;1.23;;;0.50;;
81544;SDS011;70990;50.618;7.346;2024-02-26T01:46:57;1.98;;;0.60;;
81544;SDS011;70990;50.618;7.346;2024-02-26T01:49:24;0.85;;;0.45;;
81544;SDS011;70990;50.618;7.346;2024-02-26T01:51:51;1.17;;;0.50;;
81544;SDS011;70990;50.618;7.346;2024-02-26T01:54:17;1.55;;;0.40;;
81544;SDS011;70990;50.618;7.346;2024-02-26T01:56:44;2.03;;;0.60;;
81544;SDS011;70990;50.618;7.346;2024-02-26T01:59:11;1.13;;;0.30;;
81544;SDS011;70990;50.618;7.346;2024-02-26T02:01:38;0.80;;;0.50;;
81544;SDS011;70990;50.618;7.346;2024-02-26T02:04:06;0.28;;;0.28;;
81544;SDS011;70990;50.618;7.346;2024-02-26T02:06:33;0.98;;;0.47;;
81544;SDS011;70990;50.618;7.346;2024-02-26T02:09:02;1.23;;;0.40;;
81544;SDS011;70990;50.618;7.346;2024-02-26T02:11:28;0.90;;;0.32;;
81544;SDS011;70990;50.618;7.346;2024-02-26T02:13:55;2.05;;;0.65;;
81544;SDS011;70990;50.618;7.346;2024-02-26T02:16:21;1.55;;;0.60;;
81544;SDS011;70990;50.618;7.346;2024-02-26T02:18:48;2.05;;;0.50;;
81544;SDS011;70990;50.618;7.346;2024-02-26T02:21:15;0.85;;;0.40;;
81544;SDS011;70990;50.618;7.346;2024-02-26T02:23:41;0.77;;;0.40;;
81544;SDS011;70990;50.618;7.346;2024-02-26T02:26:08;0.30;;;0.30;;
81544;SDS011;70990;50.618;7.346;2024-02-26T02:28:36;0.65;;;0.30;;
81544;SDS011;70990;50.618;7.346;2024-02-26T02:31:03;3.17;;;0.43;;
81544;SDS011;70990;50.618;7.346;2024-02-26T02:33:30;0.95;;;0.40;;
81544;SDS011;70990;50.618;7.346;2024-02-26T02:35:57;4.22;;;0.52;;
81544;SDS011;70990;50.618;7.346;2024-02-26T02:38:24;2.03;;;0.50;;
81544;SDS011;70990;50.618;7.346;2024-02-26T02:40:50;0.50;;;0.35;;
81544;SDS011;70990;50.618;7.346;2024-02-26T02:43:17;1.92;;;0.57;;
81544;SDS011;70990;50.618;7.346;2024-02-26T02:45:44;1.92;;;0.43;;
81544;SDS011;70990;50.618;7.346;2024-02-26T02:48:10;1.35;;;0.40;;
81544;SDS011;70990;50.618;7.346;2024-02-26T02:50:38;1.08;;;0.30;;
81544;SDS011;70990;50.618;7.346;2024-02-26T02:53:04;1.95;;;0.30;;
81544;SDS011;70990;50.618;7.346;2024-02-26T02:55:31;0.57;;;0.38;;
81544;SDS011;70990;50.618;7.346;2024-02-26T02:57:57;3.22;;;0.52;;
81544;SDS011;70990;50.618;7.346;2024-02-26T03:00:24;0.20;;;0.20;;
81544;SDS011;70990;50.618;7.346;2024-02-26T03:02:51;1.48;;;0.50;;
81544;SDS011;70990;50.618;7.346;2024-02-26T03:05:17;0.32;;;0.20;;
81544;SDS011;70990;50.618;7.346;2024-02-26T03:07:44;0.32;;;0.30;;
81544;SDS011;70990;50.618;7.346;2024-02-26T03:10:11;0.50;;;0.43;;
81544;SDS011;70990;50.618;7.346;2024-02-26T03:12:37;0.20;;;0.20;;
81544;SDS011;70990;50.618;7.346;2024-02-26T03:15:04;1.55;;;0.43;;
81544;SDS011;70990;50.618;7.346;2024-02-26T03:17:30;1.50;;;0.38;;
81544;SDS011;70990;50.618;7.346;2024-02-26T03:19:57;1.00;;;0.40;;
81544;SDS011;70990;50.618;7.346;2024-02-26T03:22:24;0.73;;;0.30;;
81544;SDS011;70990;50.618;7.346;2024-02-26T03:24:50;1.80;;;0.38;;
81544;SDS011;70990;50.618;7.346;2024-02-26T03:27:17;0.17;;;0.15;;
81544;SDS011;70990;50.618;7.346;2024-02-26T03:29:43;3.38;;;0.45;;
81544;SDS011;70990;50.618;7.346;2024-02-26T03:32:10;0.65;;;0.40;;
81544;SDS011;70990;50.618;7.346;2024-02-26T03:34:37;0.17;;;0.17;;
81544;SDS011;70990;50.618;7.346;2024-02-26T03:37:04;0.65;;;0.30;;
81544;SDS011;70990;50.618;7.346;2024-02-26T03:39:31;1.63;;;0.60;;
81544;SDS011;70990;50.618;7.346;2024-02-26T03:41:58;1.83;;;0.40;;
81544;SDS011;70990;50.618;7.346;2024-02-26T03:44:24;0.52;;;0.30;;
81544;SDS011;70990;50.618;7.346;2024-02-26T03:46:51;1.02;;;0.30;;
81544;SDS011;70990;50.618;7.346;2024-02-26T03:49:17;0.63;;;0.30;;
81544;SDS011;70990;50.618;7.346;2024-02-26T03:51:44;0.80;;;0.40;;
81544;SDS011;70990;50.618;7.346;2024-02-26T03:54:11;0.57;;;0.38;;
81544;SDS011;70990;50.618;7.346;2024-02-26T03:56:37;0.75;;;0.45;;
81544;SDS011;70990;50.618;7.346;2024-02-26T03:59:04;0.82;;;0.38;;
81544;SDS011;70990;50.618;7.346;2024-02-26T04:01:30;1.05;;;0.40;;
81544;SDS011;70990;50.618;7.346;2024-02-26T04:03:57;1.70;;;0.60;;
81544;SDS011;70990;50.618;7.346;2024-02-26T04:06:23;1.58;;;0.50;;
81544;SDS011;70990;50.618;7.346;2024-02-26T04:08:50;0.50;;;0.40;;
81544;SDS011;70990;50.618;7.346;2024-02-26T04:11:16;1.33;;;0.55;;
81544;SDS011;70990;50.618;7.346;2024-02-26T04:13:43;0.73;;;0.40;;
81544;SDS011;70990;50.618;7.346;2024-02-26T04:16:10;2.78;;;0.65;;
81544;SDS011;70990;50.618;7.346;2024-02-26T04:18:37;0.73;;;0.60;;
81544;SDS011;70990;50.618;7.346;2024-02-26T04:21:04;4.47;;;0.52;;
81544;SDS011;70990;50.618;7.346;2024-02-26T04:23:33;0.93;;;0.65;;
81544;SDS011;70990;50.618;7.346;2024-02-26T04:26:00;1.85;;;0.63;;
81544;SDS011;70990;50.618;7.346;2024-02-26T04:28:27;1.60;;;0.70;;
81544;SDS011;70990;50.618;7.346;2024-02-26T04:30:53;0.47;;;0.32;;
81544;SDS011;70990;50.618;7.346;2024-02-26T04:33:20;3.67;;;0.55;;
81544;SDS011;70990;50.618;7.346;2024-02-26T04:35:46;1.35;;;0.50;;
81544;SDS011;70990;50.618;7.346;2024-02-26T04:38:13;3.30;;;0.80;;
81544;SDS011;70990;50.618;7.346;2024-02-26T04:40:39;0.95;;;0.50;;
81544;SDS011;70990;50.618;7.346;2024-02-26T04:43:06;2.10;;;0.88;;
81544;SDS011;70990;50.618;7.346;2024-02-26T04:45:33;1.50;;;0.50;;
81544;SDS011;70990;50.618;7.346;2024-02-26T04:47:59;2.10;;;0.93;;
81544;SDS011;70990;50.618;7.346;2024-02-26T04:50:26;2.03;;;0.80;;
81544;SDS011;70990;50.618;7.346;2024-02-26T04:52:53;1.92;;;0.80;;
81544;SDS011;70990;50.618;7.346;2024-02-26T04:55:19;2.90;;;0.80;;
81544;SDS011;70990;50.618;7.346;2024-02-26T04:57:46;2.95;;;1.10;;
81544;SDS011;70990;50.618;7.346;2024-02-26T05:00:13;3.88;;;0.90;;
81544;SDS011;70990;50.618;7.346;2024-02-26T05:02:40;1.17;;;0.63;;
81544;SDS011;70990;50.618;7.346;2024-02-26T05:05:07;1.77;;;0.68;;
81544;SDS011;70990;50.618;7.346;2024-02-26T05:07:34;1.67;;;0.75;;
81544;SDS011;70990;50.618;7.346;2024-02-26T05:10:06;2.08;;;1.00;;
81544;SDS011;70990;50.618;7.346;2024-02-26T05:12:32;1.70;;;0.90;;
81544;SDS011;70990;50.618;7.346;2024-02-26T05:14:59;2.97;;;1.10;;
81544;SDS011;70990;50.618;7.346;2024-02-26T05:17:26;2.38;;;0.98;;
81544;SDS011;70990;50.618;7.346;2024-02-26T05:19:53;2.88;;;0.95;;
81544;SDS011;70990;50.618;7.346;2024-02-26T05:22:20;2.15;;;0.90;;
81544;SDS011;70990;50.618;7.346;2024-02-26T05:24:46;2.38;;;0.93;;
81544;SDS011;70990;50.618;7.346;2024-02-26T05:27:13;1.05;;;0.52;;
81544;SDS011;70990;50.618;7.346;2024-02-26T05:29:39;2.53;;;0.90;;
81544;SDS011;70990;50.618;7.346;2024-02-26T05:32:06;3.75;;;1.33;;
81544;SDS011;70990;50.618;7.346;2024-02-26T05:34:32;2.50;;;0.80;;
81544;SDS011;70990;50.618;7.346;2024-02-26T05:36:59;1.92;;;0.93;;
81544;SDS011;70990;50.618;7.346;2024-02-26T05:39:25;2.90;;;0.90;;
81544;SDS011;70990;50.618;7.346;2024-02-26T05:41:52;2.55;;;1.17;;
81544;SDS011;70990;50.618;7.346;2024-02-26T05:44:18;4.40;;;0.88;;
81544;SDS011;70990;50.618;7.346;2024-02-26T05:46:46;2.05;;;1.08;;
81544;SDS011;70990;50.618;7.346;2024-02-26T05:49:13;2.80;;;1.20;;
81544;SDS011;70990;50.618;7.346;2024-02-26T05:51:39;3.58;;;1.13;;
81544;SDS011;70990;50.618;7.346;2024-02-26T05:54:06;2.42;;;1.00;;
81544;SDS011;70990;50.618;7.346;2024-02-26T05:56:32;4.13;;;1.30;;
81544;SDS011;70990;50.618;7.346;2024-02-26T05:58:59;3.45;;;1.40;;
81544;SDS011;70990;50.618;7.346;2024-02-26T06:01:25;3.33;;;1.10;;
81544;SDS011;70990;50.618;7.346;2024-02-26T06:03:52;2.13;;;0.93;;
81544;SDS011;70990;50.618;7.346;2024-02-26T06:06:19;4.88;;;1.55;;
81544;SDS011;70990;50.618;7.346;2024-02-26T06:08:46;4.82;;;1.20;;
81544;SDS011;70990;50.618;7.346;2024-02-26T06:11:12;3.15;;;1.10;;
81544;SDS011;70990;50.618;7.346;2024-02-26T06:13:39;2.20;;;0.80;;
81544;SDS011;70990;50.618;7.346;2024-02-26T06:16:07;2.10;;;1.08;;
81544;SDS011;70990;50.618;7.346;2024-02-26T06:18:34;2.58;;;1.05;;
81544;SDS011;70990;50.618;7.346;2024-02-26T06:21:01;3.33;;;1.25;;
81544;SDS011;70990;50.618;7.346;2024-02-26T06:23:27;2.75;;;1.10;;
81544;SDS011;70990;50.618;7.346;2024-02-26T06:25:54;4.70;;;1.17;;
81544;SDS011;70990;50.618;7.346;2024-02-26T06:28:20;5.00;;;1.40;;
81544;SDS011;70990;50.618;7.346;2024-02-26T06:30:47;2.85;;;1.13;;
81544;SDS011;70990;50.618;7.346;2024-02-26T06:33:13;3.25;;;1.10;;
81544;SDS011;70990;50.618;7.346;2024-02-26T06:35:40;1.95;;;1.00;;
81544;SDS011;70990;50.618;7.346;2024-02-26T06:38:06;3.47;;;1.17;;
81544;SDS011;70990;50.618;7.346;2024-02-26T06:40:33;3.60;;;1.38;;
81544;SDS011;70990;50.618;7.346;2024-02-26T06:42:59;1.38;;;0.65;;
81544;SDS011;70990;50.618;7.346;2024-02-26T06:45:26;3.28;;;1.23;;
81544;SDS011;70990;50.618;7.346;2024-02-26T06:47:53;3.25;;;1.15;;
81544;SDS011;70990;50.618;7.346;2024-02-26T06:50:19;4.40;;;1.10;;
81544;SDS011;70990;50.618;7.346;2024-02-26T06:52:46;5.72;;;1.25;;
81544;SDS011;70990;50.618;7.346;2024-02-26T06:55:13;1.85;;;1.00;;
81544;SDS011;70990;50.618;7.346;2024-02-26T06:57:40;3.47;;;1.30;;
81544;SDS011;70990;50.618;7.346;2024-02-26T07:00:07;2.55;;;1.00;;
81544;SDS011;70990;50.618;7.346;2024-02-26T07:02:34;2.70;;;1.13;;
81544;SDS011;70990;50.618;7.346;2024-02-26T07:05:05;2.08;;;1.10;;
81544;SDS011;70990;50.618;7.346;2024-02-26T07:07:31;3.05;;;0.98;;
81544;SDS011;70990;50.618;7.346;2024-02-26T07:09:58;4.25;;;1.42;;
81544;SDS011;70990;50.618;7.346;2024-02-26T07:12:24;2.47;;;1.10;;
81544;SDS011;70990;50.618;7.346;2024-02-26T07:14:51;1.50;;;0.85;;
81544;SDS011;70990;50.618;7.346;2024-02-26T07:17:18;3.80;;;1.23;;
81544;SDS011;70990;50.618;7.346;2024-02-26T07:19:44;1.50;;;0.70;;
81544;SDS011;70990;50.618;7.346;2024-02-26T07:22:11;4.57;;;1.30;;
81544;SDS011;70990;50.618;7.346;2024-02-26T07:24:37;2.28;;;1.05;;
81544;SDS011;70990;50.618;7.346;2024-02-26T07:27:04;2.53;;;0.70;;
81544;SDS011;70990;50.618;7.346;2024-02-26T07:29:33;3.50;;;1.30;;
81544;SDS011;70990;50.618;7.346;2024-02-26T07:31:59;3.30;;;1.20;;
81544;SDS011;70990;50.618;7.346;2024-02-26T07:34:29;3.63;;;1.55;;
81544;SDS011;70990;50.618;7.346;2024-02-26T07:36:57;3.55;;;1.52;;
81544;SDS011;70990;50.618;7.346;2024-02-26T07:39:24;4.32;;;1.58;;
81544;SDS011;70990;50.618;7.346;2024-02-26T07:41:51;4.13;;;1.40;;
81544;SDS011;70990;50.618;7.346;2024-02-26T07:44:17;2.95;;;1.30;;
81544;SDS011;70990;50.618;7.346;2024-02-26T07:46:46;4.35;;;1.52;;
81544;SDS011;70990;50.618;7.346;2024-02-26T07:49:12;3.88;;;1.60;;
81544;SDS011;70990;50.618;7.346;2024-02-26T07:51:39;3.88;;;1.45;;
81544;SDS011;70990;50.618;7.346;2024-02-26T07:54:06;5.40;;;2.00;;
81544;SDS011;70990;50.618;7.346;2024-02-26T07:56:32;4.50;;;1.83;;
81544;SDS011;70990;50.618;7.346;2024-02-26T07:58:59;4.65;;;1.75;;
81544;SDS011;70990;50.618;7.346;2024-02-26T08:01:25;4.15;;;1.50;;
81544;SDS011;70990;50.618;7.346;2024-02-26T08:03:55;3.30;;;1.25;;
81544;SDS011;70990;50.618;7.346;2024-02-26T08:06:22;3.97;;;1.45;;
81544;SDS011;70990;50.618;7.346;2024-02-26T08:08:49;3.83;;;1.23;;
81544;SDS011;70990;50.618;7.346;2024-02-26T08:11:16;3.75;;;1.52;;
81544;SDS011;70990;50.618;7.346;2024-02-26T08:13:43;3.53;;;1.30;;
81544;SDS011;70990;50.618;7.346;2024-02-26T08:16:09;7.07;;;1.30;;
81544;SDS011;70990;50.618;7.346;2024-02-26T08:18:36;3.55;;;1.20;;
81544;SDS011;70990;50.618;7.346;2024-02-26T08:21:03;3.40;;;1.50;;
81544;SDS011;70990;50.618;7.346;2024-02-26T08:23:29;3.17;;;1.27;;
81544;SDS011;70990;50.618;7.346;2024-02-26T08:25:56;3.53;;;1.48;;
81544;SDS011;70990;50.618;7.346;2024-02-26T08:28:23;2.63;;;1.10;;
81544;SDS011;70990;50.618;7.346;2024-02-26T08:30:49;4.25;;;1.42;;
81544;SDS011;70990;50.618;7.346;2024-02-26T08:33:16;3.08;;;1.17;;
81544;SDS011;70990;50.618;7.346;2024-02-26T08:35:43;5.55;;;1.50;;
81544;SDS011;70990;50.618;7.346;2024-02-26T08:38:09;3.78;;;1.30;;
81544;SDS011;70990;50.618;7.346;2024-02-26T08:40:36;3.42;;;1.38;;
81544;SDS011;70990;50.618;7.346;2024-02-26T08:43:03;3.70;;;1.60;;
81544;SDS011;70990;50.618;7.346;2024-02-26T08:45:29;4.13;;;1.40;;
81544;SDS011;70990;50.618;7.346;2024-02-26T08:47:56;3.83;;;1.60;;
81544;SDS011;70990;50.618;7.346;2024-02-26T08:50:23;2.92;;;1.30;;
81544;SDS011;70990;50.618;7.346;2024-02-26T08:52:49;3.47;;;1.30;;
81544;SDS011;70990;50.618;7.346;2024-02-26T08:55:16;2.50;;;1.20;;
81544;SDS011;70990;50.618;7.346;2024-02-26T08:57:43;3.50;;;1.27;;
81544;SDS011;70990;50.618;7.346;2024-02-26T09:00:09;5.07;;;1.38;;
81544;SDS011;70990;50.618;7.346;2024-02-26T09:02:36;3.85;;;1.65;;
81544;SDS011;70990;50.618;7.346;2024-02-26T09:05:03;4.30;;;1.40;;
81544;SDS011;70990;50.618;7.346;2024-02-26T09:07:31;2.55;;;1.30;;
81544;SDS011;70990;50.618;7.346;2024-02-26T09:10:01;4.75;;;1.58;;
81544;SDS011;70990;50.618;7.346;2024-02-26T09:12:30;5.57;;;1.75;;
81544;SDS011;70990;50.618;7.346;2024-02-26T09:14:57;4.28;;;1.75;;
81544;SDS011;70990;50.618;7.346;2024-02-26T09:17:24;2.88;;;1.38;;
81544;SDS011;70990;50.618;7.346;2024-02-26T09:19:50;4.28;;;1.70;;
81544;SDS011;70990;50.618;7.346;2024-02-26T09:22:18;4.10;;;1.55;;
81544;SDS011;70990;50.618;7.346;2024-02-26T09:24:45;6.38;;;1.90;;
81544;SDS011;70990;50.618;7.346;2024-02-26T09:27:12;3.97;;;1.80;;
81544;SDS011;70990;50.618;7.346;2024-02-26T09:29:39;4.10;;;1.70;;
81544;SDS011;70990;50.618;7.346;2024-02-26T09:32:05;3.92;;;0.95;;
81544;SDS011;70990;50.618;7.346;2024-02-26T09:34:32;4.78;;;1.70;;
81544;SDS011;70990;50.618;7.346;2024-02-26T09:36:59;4.57;;;1.77;;
81544;SDS011;70990;50.618;7.346;2024-02-26T09:39:38;3.97;;;1.35;;
81544;SDS011;70990;50.618;7.346;2024-02-26T09:42:04;3.67;;;1.23;;
81544;SDS011;70990;50.618;7.346;2024-02-26T09:44:31;2.60;;;1.13;;
81544;SDS011;70990;50.618;7.346;2024-02-26T09:47:02;5.10;;;1.40;;
81544;SDS011;70990;50.618;7.346;2024-02-26T09:49:29;5.00;;;1.70;;
81544;SDS011;70990;50.618;7.346;2024-02-26T09:51:55;4.72;;;1.65;;
81544;SDS011;70990;50.618;7.346;2024-02-26T09:54:23;3.47;;;1.48;;
81544;SDS011;70990;50.618;7.346;2024-02-26T09:56:50;4.15;;;1.77;;
81544;SDS011;70990;50.618;7.346;2024-02-26T09:59:29;4.45;;;1.70;;
81544;SDS011;70990;50.618;7.346;2024-02-26T10:02:08;4.72;;;1.60;;
81544;SDS011;70990;50.618;7.346;2024-02-26T10:04:39;5.10;;;1.90;;
81544;SDS011;70990;50.618;7.346;2024-02-26T10:07:10;4.43;;;1.70;;
81544;SDS011;70990;50.618;7.346;2024-02-26T10:09:39;3.22;;;1.33;;
81544;SDS011;70990;50.618;7.346;2024-02-26T10:12:07;2.78;;;1.20;;
81544;SDS011;70990;50.618;7.346;2024-02-26T10:14:36;5.55;;;1.33;;
81544;SDS011;70990;50.618;7.346;2024-02-26T10:17:04;5.60;;;1.88;;
81544;SDS011;70990;50.618;7.346;2024-02-26T10:19:33;4.65;;;1.75;;
81544;SDS011;70990;50.618;7.346;2024-02-26T10:22:04;4.18;;;1.38;;
81544;SDS011;70990;50.618;7.346;2024-02-26T10:24:30;4.03;;;1.33;;
81544;SDS011;70990;50.618;7.346;2024-02-26T10:26:57;3.03;;;1.13;;
81544;SDS011;70990;50.618;7.346;2024-02-26T10:29:34;5.10;;;1.73;;
81544;SDS011;70990;50.618;7.346;2024-02-26T10:32:01;6.00;;;1.88;;
81544;SDS011;70990;50.618;7.346;2024-02-26T10:34:28;3.58;;;1.40;;
81544;SDS011;70990;50.618;7.346;2024-02-26T10:36:55;3.35;;;1.38;;
81544;SDS011;70990;50.618;7.346;2024-02-26T10:39:21;2.78;;;1.40;;
81544;SDS011;70990;50.618;7.346;2024-02-26T10:41:48;4.40;;;1.40;;
81544;SDS011;70990;50.618;7.346;2024-02-26T10:44:16;3.30;;;1.25;;
81544;SDS011;70990;50.618;7.346;2024-02-26T10:46:46;4.32;;;1.67;;
81544;SDS011;70990;50.618;7.346;2024-02-26T10:49:14;6.82;;;1.58;;
81544;SDS011;70990;50.618;7.346;2024-02-26T10:51:42;6.07;;;1.83;;
81544;SDS011;70990;50.618;7.346;2024-02-26T10:54:11;4.07;;;1.90;;
81544;SDS011;70990;50.618;7.346;2024-02-26T10:56:44;5.25;;;1.98;;
81544;SDS011;70990;50.618;7.346;2024-02-26T10:59:13;5.82;;;1.85;;
81544;SDS011;70990;50.618;7.346;2024-02-26T11:01:41;5.07;;;2.00;;
81544;SDS011;70990;50.618;7.346;2024-02-26T11:04:09;5.22;;;1.63;;
81544;SDS011;70990;50.618;7.346;2024-02-26T11:06:36;5.72;;;1.83;;
81544;SDS011;70990;50.618;7.346;2024-02-26T11:09:04;3.00;;;1.38;;
81544;SDS011;70990;50.618;7.346;2024-02-26T11:11:34;4.93;;;1.55;;
81544;SDS011;70990;50.618;7.346;2024-02-26T11:14:01;4.43;;;1.70;;
81544;SDS011;70990;50.618;7.346;2024-02-26T11:16:29;3.65;;;1.23;;
81544;SDS011;70990;50.618;7.346;2024-02-26T11:18:56;4.30;;;1.67;;
81544;SDS011;70990;50.618;7.346;2024-02-26T11:21:24;4.97;;;1.67;;
81544;SDS011;70990;50.618;7.346;2024-02-26T11:23:51;5.13;;;1.80;;
81544;SDS011;70990;50.618;7.346;2024-02-26T11:26:17;4.47;;;1.67;;
81544;SDS011;70990;50.618;7.346;2024-02-26T11:28:45;4.32;;;1.85;;
81544;SDS011;70990;50.618;7.346;2024-02-26T11:31:14;4.13;;;1.60;;
81544;SDS011;70990;50.618;7.346;2024-02-26T11:33:41;7.47;;;2.30;;
81544;SDS011;70990;50.618;7.346;2024-02-26T11:36:11;6.53;;;1.88;;
81544;SDS011;70990;50.618;7.346;2024-02-26T11:38:38;5.35;;;1.67;;
81544;SDS011;70990;50.618;7.346;2024-02-26T11:41:04;6.38;;;1.98;;
81544;SDS011;70990;50.618;7.346;2024-02-26T11:46:30;6.22;;;1.90;;
81544;SDS011;70990;50.618;7.346;2024-02-26T11:49:04;3.95;;;1.65;;
81544;SDS011;70990;50.618;7.346;2024-02-26T11:51:59;4.63;;;1.55;;
81544;SDS011;70990;50.618;7.346;2024-02-26T11:54:45;4.20;;;1.40;;
81544;SDS011;70990;50.618;7.346;2024-02-26T11:59:49;3.70;;;1.60;;
81544;SDS011;70990;50.618;7.346;2024-02-26T12:05:06;4.10;;;1.45;;
81544;SDS011;70990;50.618;7.346;2024-02-26T12:07:36;3.50;;;1.40;;
81544;SDS011;70990;50.618;7.346;2024-02-26T12:10:15;10.82;;;1.88;;
81544;SDS011;70990;50.618;7.346;2024-02-26T12:12:47;4.22;;;1.70;;
81544;SDS011;70990;50.618;7.346;2024-02-26T12:15:14;7.07;;;1.92;;
81544;SDS011;70990;50.618;7.346;2024-02-26T12:17:43;6.05;;;2.15;;
81544;SDS011;70990;50.618;7.346;2024-02-26T12:20:15;4.32;;;1.83;;
81544;SDS011;70990;50.618;7.346;2024-02-26T12:22:45;6.10;;;2.00;;
81544;SDS011;70990;50.618;7.346;2024-02-26T12:25:12;5.63;;;1.77;;
81544;SDS011;70990;50.618;7.346;2024-02-26T12:27:39;5.07;;;1.92;;
81544;SDS011;70990;50.618;7.346;2024-02-26T12:30:06;7.32;;;1.98;;
81544;SDS011;70990;50.618;7.346;2024-02-26T12:32:34;4.57;;;1.80;;
81544;SDS011;70990;50.618;7.346;2024-02-26T12:35:01;5.80;;;1.85;;
81544;SDS011;70990;50.618;7.346;2024-02-26T12:37:28;4.10;;;1.80;;
81544;SDS011;70990;50.618;7.346;2024-02-26T12:39:54;4.85;;;1.60;;
81544;SDS011;70990;50.618;7.346;2024-02-26T12:42:25;4.63;;;2.03;;
81544;SDS011;70990;50.618;7.346;2024-02-26T12:44:52;4.88;;;1.70;;
81544;SDS011;70990;50.618;7.346;2024-02-26T12:47:20;6.53;;;2.10;;
81544;SDS011;70990;50.618;7.346;2024-02-26T12:49:47;5.82;;;2.13;;
81544;SDS011;70990;50.618;7.346;2024-02-26T12:52:14;4.78;;;1.90;;
81544;SDS011;70990;50.618;7.346;2024-02-26T12:54:42;4.68;;;1.95;;
81544;SDS011;70990;50.618;7.346;2024-02-26T12:57:10;5.88;;;2.40;;
81544;SDS011;70990;50.618;7.346;2024-02-26T12:59:37;5.90;;;2.45;;
81544;SDS011;70990;50.618;7.346;2024-02-26T13:02:05;5.55;;;2.22;;
81544;SDS011;70990;50.618;7.346;2024-02-26T13:04:34;5.15;;;2.00;;
81544;SDS011;70990;50.618;7.346;2024-02-26T13:07:03;5.32;;;2.00;;
81544;SDS011;70990;50.618;7.346;2024-02-26T13:09:33;5.47;;;2.10;;
81544;SDS011;70990;50.618;7.346;2024-02-26T13:12:03;5.70;;;2.05;;
81544;SDS011;70990;50.618;7.346;2024-02-26T13:14:30;6.15;;;2.13;;
81544;SDS011;70990;50.618;7.346;2024-02-26T13:16:57;8.00;;;2.08;;
81544;SDS011;70990;50.618;7.346;2024-02-26T13:19:24;6.38;;;2.35;;
81544;SDS011;70990;50.618;7.346;2024-02-26T13:21:51;5.47;;;1.98;;
81544;SDS011;70990;50.618;7.346;2024-02-26T13:24:19;5.18;;;2.15;;
81544;SDS011;70990;50.618;7.346;2024-02-26T13:26:46;6.03;;;2.28;;
81544;SDS011;70990;50.618;7.346;2024-02-26T13:29:19;7.18;;;2.30;;
81544;SDS011;70990;50.618;7.346;2024-02-26T13:31:45;5.88;;;2.35;;
81544;SDS011;70990;50.618;7.346;2024-02-26T13:34:25;9.13;;;2.40;;
81544;SDS011;70990;50.618;7.346;2024-02-26T13:36:53;6.15;;;2.63;;
81544;SDS011;70990;50.618;7.346;2024-02-26T13:39:21;6.53;;;2.33;;
81544;SDS011;70990;50.618;7.346;2024-02-26T13:41:51;4.82;;;1.95;;
81544;SDS011;70990;50.618;7.346;2024-02-26T13:44:19;6.45;;;1.95;;
81544;SDS011;70990;50.618;7.346;2024-02-26T13:46:46;5.97;;;2.65;;
81544;SDS011;70990;50.618;7.346;2024-02-26T13:49:13;5.60;;;2.30;;
81544;SDS011;70990;50.618;7.346;2024-02-26T13:51:40;6.15;;;2.10;;
81544;SDS011;70990;50.618;7.346;2024-02-26T13:54:07;5.18;;;1.95;;
81544;SDS011;70990;50.618;7.346;2024-02-26T13:56:34;6.28;;;2.20;;
81544;SDS011;70990;50.618;7.346;2024-02-26T13:59:01;5.07;;;2.20;;
81544;SDS011;70990;50.618;7.346;2024-02-26T14:01:28;5.78;;;2.00;;
81544;SDS011;70990;50.618;7.346;2024-02-26T14:03:54;8.93;;;2.60;;
81544;SDS011;70990;50.618;7.346;2024-02-26T14:06:22;7.05;;;2.22;;
81544;SDS011;70990;50.618;7.346;2024-02-26T14:08:49;3.80;;;1.77;;
81544;SDS011;70990;50.618;7.346;2024-02-26T14:11:16;5.90;;;2.40;;
81544;SDS011;70990;50.618;7.346;2024-02-26T14:13:43;3.90;;;1.83;;
81544;SDS011;70990;50.618;7.346;2024-02-26T14:16:11;5.03;;;2.05;;
81544;SDS011;70990;50.618;7.346;2024-02-26T14:18:38;5.72;;;2.08;;
81544;SDS011;70990;50.618;7.346;2024-02-26T14:21:05;4.22;;;1.83;;
81544;SDS011;70990;50.618;7.346;2024-02-26T14:23:32;7.68;;;2.47;;
81544;SDS011;70990;50.618;7.346;2024-02-26T14:25:59;5.22;;;1.98;;
81544;SDS011;70990;50.618;7.346;2024-02-26T14:28:25;4.53;;;1.92;;
81544;SDS011;70990;50.618;7.346;2024-02-26T14:31:01;6.28;;;2.05;;
81544;SDS011;70990;50.618;7.346;2024-02-26T14:33:28;4.90;;;1.98;;
81544;SDS011;70990;50.618;7.346;2024-02-26T14:35:54;5.68;;;2.05;;
81544;SDS011;70990;50.618;7.346;2024-02-26T14:38:21;4.57;;;2.20;;
81544;SDS011;70990;50.618;7.346;2024-02-26T14:40:47;5.32;;;2.08;;
81544;SDS011;70990;50.618;7.346;2024-02-26T14:43:15;7.63;;;1.98;;
81544;SDS011;70990;50.618;7.346;2024-02-26T14:45:42;5.25;;;2.08;;
81544;SDS011;70990;50.618;7.346;2024-02-26T14:48:09;4.15;;;1.85;;
81544;SDS011;70990;50.618;7.346;2024-02-26T14:50:36;13.70;;;4.13;;
81544;SDS011;70990;50.618;7.346;2024-02-26T14:53:03;4.80;;;2.40;;
81544;SDS011;70990;50.618;7.346;2024-02-26T14:55:30;8.55;;;3.95;;
81544;SDS011;70990;50.618;7.346;2024-02-26T14:57:57;6.13;;;2.30;;